createdAt,value
2022-07-25T00:01:49.894Z,99609.66
2022-07-25T00:04:17.516Z,99610.81
2022-07-25T00:06:45.899Z,99614.44
2022-07-25T00:09:13.304Z,99613.91
2022-07-25T00:11:40.355Z,99617.28
2022-07-25T00:14:07.677Z,99619.25
2022-07-25T00:16:35.325Z,99625.72
2022-07-25T00:19:02.422Z,99621.53
2022-07-25T00:21:29.396Z,99621.69
2022-07-25T00:23:56.386Z,99612.84
2022-07-25T00:26:23.280Z,99616.66
2022-07-25T00:28:50.157Z,99614.28
2022-07-25T00:31:17.161Z,99618.78
2022-07-25T00:33:44.150Z,99615.44
2022-07-25T00:36:11.279Z,99611.06
2022-07-25T00:38:38.267Z,99610.25
2022-07-25T00:41:05.440Z,99615.88
2022-07-25T00:43:32.693Z,99620.38
2022-07-25T00:46:00.509Z,99616.34
2022-07-25T00:48:28.933Z,99619.84
2022-07-25T00:50:56.676Z,99612.00
2022-07-25T00:53:24.622Z,99615.63
2022-07-25T00:55:52.815Z,99606.94
2022-07-25T00:58:19.918Z,99615.81
2022-07-25T01:00:47.742Z,99618.75
2022-07-25T01:03:15.057Z,99608.09
2022-07-25T01:05:42.456Z,99611.72
2022-07-25T01:08:10.200Z,99612.75
2022-07-25T01:10:38.101Z,99611.91
2022-07-25T01:13:05.551Z,99617.25
2022-07-25T01:15:32.518Z,99623.41
2022-07-25T01:17:59.774Z,99618.22
2022-07-25T01:20:28.609Z,99609.53
2022-07-25T01:22:56.629Z,99606.84
2022-07-25T01:25:24.767Z,99614.69
2022-07-25T01:27:55.724Z,99604.47
2022-07-25T01:30:25.398Z,99606.16
2022-07-25T01:32:52.920Z,99600.97
2022-07-25T01:35:20.247Z,99605.50
2022-07-25T01:37:47.278Z,99602.09
2022-07-25T01:40:14.745Z,99609.13
2022-07-25T01:42:42.830Z,99608.44
2022-07-25T01:45:11.056Z,99604.78
2022-07-25T01:47:38.989Z,99603.13
2022-07-25T01:50:06.442Z,99608.44
2022-07-25T01:52:33.355Z,99597.91
2022-07-25T01:55:00.292Z,99602.41
2022-07-25T01:57:30.913Z,99601.72
2022-07-25T01:59:59.055Z,99601.72
2022-07-25T02:02:26.684Z,99602.84
2022-07-25T02:04:54.799Z,99599.22
2022-07-25T02:07:21.706Z,99598.38
2022-07-25T02:09:52.101Z,99598.19
2022-07-25T02:12:21.703Z,99594.72
2022-07-25T02:14:48.675Z,99586.00
2022-07-25T02:17:15.823Z,99587.84
2022-07-25T02:19:43.015Z,99585.19
2022-07-25T02:22:09.878Z,99582.66
2022-07-25T02:24:37.453Z,99586.28
2022-07-25T02:27:05.402Z,99587.31
2022-07-25T02:29:32.688Z,99589.97
2022-07-25T02:31:59.637Z,99584.94
2022-07-25T02:34:26.738Z,99588.28
2022-07-25T02:36:53.599Z,99589.28
2022-07-25T02:39:21.478Z,99582.25
2022-07-25T02:41:48.384Z,99574.25
2022-07-25T02:44:15.266Z,99577.91
2022-07-25T02:46:42.162Z,99576.25
2022-07-25T02:49:09.168Z,99584.25
2022-07-25T02:51:36.060Z,99587.03
2022-07-25T02:54:02.939Z,99586.22
2022-07-25T02:56:31.962Z,99593.22
2022-07-25T02:58:59.546Z,99604.91
2022-07-25T03:01:26.545Z,99598.72
2022-07-25T03:03:53.627Z,99602.38
2022-07-25T03:06:20.754Z,99596.19
2022-07-25T03:08:47.627Z,99603.34
2022-07-25T03:11:14.536Z,99599.88
2022-07-25T03:13:41.482Z,99598.16
2022-07-25T03:16:08.810Z,99592.84
2022-07-25T03:18:35.828Z,99595.63
2022-07-25T03:21:02.713Z,99590.28
2022-07-25T03:23:31.200Z,99588.59
2022-07-25T03:25:58.228Z,99597.59
2022-07-25T03:28:25.404Z,99595.75
2022-07-25T03:30:53.195Z,99595.06
2022-07-25T03:33:20.360Z,99597.75
2022-07-25T03:35:47.420Z,99590.59
2022-07-25T03:38:14.419Z,99590.72
2022-07-25T03:40:41.296Z,99588.06
2022-07-25T03:43:08.147Z,99588.22
2022-07-25T03:45:35.371Z,99590.03
2022-07-25T03:48:02.489Z,99584.84
2022-07-25T03:50:29.500Z,99584.69
2022-07-25T03:52:56.716Z,99575.84
2022-07-25T03:55:23.680Z,99579.66
2022-07-25T03:57:50.878Z,99579.66
2022-07-25T04:00:17.985Z,99580.78
2022-07-25T04:02:45.229Z,99583.31
2022-07-25T04:05:12.129Z,99591.34
2022-07-25T04:07:39.164Z,99583.47
2022-07-25T04:10:07.652Z,99580.78
2022-07-25T04:12:35.686Z,99585.28
2022-07-25T04:15:02.616Z,99578.28
2022-07-25T04:17:29.476Z,99575.63
2022-07-25T04:19:57.434Z,99582.78
2022-07-25T04:22:24.339Z,99581.09
2022-07-25T04:24:51.217Z,99583.91
2022-07-25T04:27:18.085Z,99567.91
2022-07-25T04:29:45.031Z,99562.69
2022-07-25T04:32:12.063Z,99566.22
2022-07-25T04:34:39.026Z,99567.22
2022-07-25T04:37:05.897Z,99568.19
2022-07-25T04:39:32.735Z,99562.88
2022-07-25T04:41:59.754Z,99562.19
2022-07-25T04:44:26.605Z,99569.34
2022-07-25T04:46:53.467Z,99573.69
2022-07-25T04:49:20.416Z,99563.16
2022-07-25T04:51:47.370Z,99567.63
2022-07-25T04:54:14.246Z,99564.16
2022-07-25T04:56:41.136Z,99575.81
2022-07-25T04:59:08.042Z,99570.31
2022-07-25T05:01:35.743Z,99573.13
2022-07-25T05:04:02.846Z,99569.63
2022-07-25T05:06:29.836Z,99573.13
2022-07-25T05:08:56.767Z,99579.44
2022-07-25T05:11:23.624Z,99580.44
2022-07-25T05:13:50.524Z,99581.25
2022-07-25T05:16:17.390Z,99584.94
2022-07-25T05:18:44.363Z,99584.25
2022-07-25T05:21:12.790Z,99581.72
2022-07-25T05:23:40.005Z,99584.38
2022-07-25T05:26:06.916Z,99583.41
2022-07-25T05:28:34.244Z,99590.56
2022-07-25T05:31:01.311Z,99595.03
2022-07-25T05:33:28.300Z,99589.03
2022-07-25T05:35:55.192Z,99593.50
2022-07-25T05:38:22.172Z,99601.38
2022-07-25T05:40:49.487Z,99604.19
2022-07-25T05:43:16.431Z,99602.50
2022-07-25T05:45:44.457Z,99612.19
2022-07-25T05:48:11.420Z,99612.19
2022-07-25T05:50:38.326Z,99612.34
2022-07-25T05:53:05.256Z,99615.00
2022-07-25T05:55:32.224Z,99623.00
2022-07-25T05:57:59.576Z,99622.16
2022-07-25T06:00:26.701Z,99629.06
2022-07-25T06:02:53.749Z,99625.84
2022-07-25T06:05:20.679Z,99629.09
2022-07-25T06:07:47.707Z,99639.91
2022-07-25T06:10:14.570Z,99637.50
2022-07-25T06:12:41.481Z,99647.19
2022-07-25T06:15:17.696Z,99642.28
2022-07-25T06:17:50.272Z,99645.06
2022-07-25T06:20:17.296Z,99648.28
2022-07-25T06:22:44.137Z,99644.78
2022-07-25T06:25:11.267Z,99650.13
2022-07-25T06:27:38.989Z,99642.13
2022-07-25T06:30:18.751Z,99657.84
2022-07-25T06:32:46.748Z,99655.84
2022-07-25T06:35:13.606Z,99658.53
2022-07-25T06:37:40.879Z,99655.84
2022-07-25T06:40:08.853Z,99654.72
2022-07-25T06:42:40.163Z,99667.94
2022-07-25T06:45:09.987Z,99667.94
2022-07-25T06:47:38.632Z,99674.06
2022-07-25T06:50:07.721Z,99671.28
2022-07-25T06:52:35.143Z,99672.25
2022-07-25T06:55:05.558Z,99678.28
2022-07-25T06:57:32.750Z,99676.47
2022-07-25T06:59:59.740Z,99681.94
2022-07-25T07:02:27.026Z,99679.97
2022-07-25T07:04:54.001Z,99687.81
2022-07-25T07:07:21.201Z,99694.00
2022-07-25T07:09:48.233Z,99694.00
2022-07-25T07:12:15.298Z,99695.69
2022-07-25T07:14:44.628Z,99698.19
2022-07-25T07:17:11.645Z,99701.88
2022-07-25T07:19:44.685Z,99703.28
2022-07-25T07:22:11.910Z,99705.25
2022-07-25T07:24:44.385Z,99714.91
2022-07-25T07:27:15.116Z,99721.50
2022-07-25T07:29:46.084Z,99721.06
2022-07-25T07:32:13.718Z,99732.47
2022-07-25T07:34:40.799Z,99735.81
2022-07-25T07:37:08.244Z,99730.47
2022-07-25T07:39:35.346Z,99726.25
2022-07-25T07:42:02.448Z,99736.91
2022-07-25T07:44:29.374Z,99736.63
2022-07-25T07:46:56.498Z,99740.00
2022-07-25T07:49:23.510Z,99740.84
2022-07-25T07:51:50.605Z,99754.88
2022-07-25T07:54:36.006Z,99754.06
2022-07-25T07:57:03.063Z,99753.34
2022-07-25T07:59:33.359Z,99752.50
2022-07-25T08:02:00.553Z,99769.34
2022-07-25T08:04:28.123Z,99765.69
2022-07-25T08:06:55.652Z,99770.06
2022-07-25T08:09:22.855Z,99777.06
2022-07-25T08:11:50.114Z,99773.41
2022-07-25T08:14:17.346Z,99769.75
2022-07-25T08:16:44.343Z,99776.94
2022-07-25T08:19:11.396Z,99783.81
2022-07-25T08:21:38.404Z,99785.47
2022-07-25T08:24:05.766Z,99793.19
2022-07-25T08:26:34.265Z,99793.19
2022-07-25T08:29:18.313Z,99793.19
2022-07-25T08:31:46.669Z,99785.19
2022-07-25T08:34:14.058Z,99796.72
2022-07-25T08:36:41.086Z,99799.81
2022-07-25T08:39:08.087Z,99804.44
2022-07-25T08:41:35.286Z,99809.47
2022-07-25T08:44:03.823Z,99810.22
2022-07-25T08:46:31.604Z,99818.91
2022-07-25T08:48:59.681Z,99829.56
2022-07-25T08:51:28.074Z,99835.63
2022-07-25T08:53:55.520Z,99838.31
2022-07-25T08:56:22.630Z,99841.66
2022-07-25T08:58:50.117Z,99835.47
2022-07-25T09:01:17.408Z,99829.16
2022-07-25T09:03:44.677Z,99842.38
2022-07-25T09:06:19.515Z,99845.06
2022-07-25T09:08:57.951Z,99852.75
2022-07-25T09:11:38.465Z,99858.81
2022-07-25T09:14:15.180Z,99857.53
2022-07-25T09:16:45.385Z,99857.53
2022-07-25T09:19:24.276Z,99862.84
2022-07-25T09:22:19.568Z,99865.53
2022-07-25T09:24:51.343Z,99878.31
2022-07-25T09:27:20.260Z,99871.16
2022-07-25T09:29:47.559Z,99886.03
2022-07-25T09:32:21.099Z,99884.63
2022-07-25T09:34:50.161Z,99885.91
2022-07-25T09:37:20.494Z,99890.25
2022-07-25T09:39:50.357Z,99894.75
2022-07-25T09:42:32.522Z,99888.41
2022-07-25T09:45:07.302Z,99905.97
2022-07-25T09:47:36.961Z,99905.00
2022-07-25T09:50:05.393Z,99902.47
2022-07-25T09:52:33.996Z,99914.97
2022-07-25T09:55:03.790Z,99916.50
2022-07-25T09:57:30.839Z,99920.03
2022-07-25T10:00:00.634Z,99929.84
2022-07-25T10:02:42.110Z,99941.22
2022-07-25T10:05:25.035Z,99949.50
2022-07-25T10:07:54.859Z,99953.19
2022-07-25T10:10:26.597Z,99963.44
2022-07-25T10:13:03.182Z,99974.25
2022-07-25T10:15:52.622Z,99975.53
2022-07-25T10:18:25.205Z,99984.38
2022-07-25T10:21:24.534Z,99991.81
2022-07-25T10:24:08.886Z,100000.78
2022-07-25T10:26:42.045Z,100014.97
2022-07-25T10:29:13.524Z,100016.09
2022-07-25T10:31:51.483Z,100023.25
2022-07-25T10:34:30.093Z,100022.28
2022-07-25T10:36:57.600Z,100032.97
2022-07-25T10:39:24.768Z,100035.47
2022-07-25T10:42:02.875Z,100045.31
2022-07-25T10:44:42.154Z,100046.31
2022-07-25T10:47:11.636Z,100056.13
2022-07-25T10:50:14.527Z,100059.66
2022-07-25T10:52:42.912Z,100071.59
2022-07-25T10:55:10.218Z,100073.16
2022-07-25T10:57:49.799Z,100084.09
2022-07-25T11:00:22.534Z,100077.66
2022-07-25T11:02:50.738Z,100098.16
2022-07-25T11:05:17.961Z,100104.50
2022-07-25T11:08:19.987Z,100108.53
2022-07-25T11:10:42.259Z,100108.81
2022-07-25T11:13:15.617Z,100115.28
2022-07-25T11:15:45.764Z,100111.75
2022-07-25T11:18:13.037Z,100116.66
2022-07-25T11:20:40.481Z,100120.34
2022-07-25T11:23:07.732Z,100127.59
2022-07-25T11:25:34.876Z,100138.59
2022-07-25T11:28:06.165Z,100145.00
2022-07-25T11:30:33.123Z,100155.84
2022-07-25T11:33:04.545Z,100162.94
2022-07-25T11:35:33.518Z,100175.59
2022-07-25T11:38:04.939Z,100167.72
2022-07-25T11:40:37.249Z,100181.06
2022-07-25T11:43:04.275Z,100178.97
2022-07-25T11:45:38.346Z,100195.13
2022-07-25T11:48:09.551Z,100193.56
2022-07-25T11:50:41.920Z,100202.69
2022-07-25T11:53:11.826Z,100217.69
2022-07-25T11:55:47.348Z,100220.50
2022-07-25T11:58:15.373Z,100234.56
2022-07-25T12:00:47.803Z,100236.81
2022-07-25T12:03:20.474Z,100229.81
2022-07-25T12:05:49.110Z,100237.09
2022-07-25T12:08:21.383Z,100239.03
2022-07-25T12:10:51.861Z,100241.84
2022-07-25T12:13:28.023Z,100253.38
2022-07-25T12:15:58.473Z,100256.16
2022-07-25T12:18:26.295Z,100265.47
2022-07-25T12:21:43.010Z,100263.91
2022-07-25T12:24:10.273Z,100275.53
2022-07-25T12:26:37.922Z,100263.19
2022-07-25T12:29:05.395Z,100274.56
2022-07-25T12:31:34.000Z,100273.97
2022-07-25T12:34:01.091Z,100290.28
2022-07-25T12:36:28.093Z,100294.06
2022-07-25T12:38:55.699Z,100301.22
2022-07-25T12:41:23.978Z,100298.78
2022-07-25T12:43:51.061Z,100306.09
2022-07-25T12:46:18.169Z,100311.88
2022-07-25T12:48:45.347Z,100314.66
2022-07-25T12:51:12.709Z,100320.44
2022-07-25T12:53:42.460Z,100333.78
2022-07-25T12:56:10.347Z,100328.16
2022-07-25T12:58:38.277Z,100335.88
2022-07-25T13:01:06.832Z,100335.63
2022-07-25T13:03:34.229Z,100345.31
2022-07-25T13:06:01.328Z,100351.69
2022-07-25T13:08:28.565Z,100357.66
2022-07-25T13:10:55.679Z,100357.03
2022-07-25T13:13:22.921Z,100365.91
2022-07-25T13:15:50.725Z,100371.22
2022-07-25T13:18:17.894Z,100380.34
2022-07-25T13:20:46.210Z,100383.00
2022-07-25T13:23:17.492Z,100394.53
2022-07-25T13:25:48.521Z,100401.69
2022-07-25T13:28:15.851Z,100399.13
2022-07-25T13:30:46.783Z,100399.66
2022-07-25T13:33:14.522Z,100403.63
2022-07-25T13:35:41.888Z,100406.53
2022-07-25T13:38:12.646Z,100418.78
2022-07-25T13:40:43.643Z,100422.19
2022-07-25T13:43:11.166Z,100424.84
2022-07-25T13:45:39.249Z,100420.88
2022-07-25T13:50:55.821Z,100431.69
2022-07-25T13:53:27.989Z,100434.59
2022-07-25T13:55:58.602Z,100439.47
2022-07-25T13:58:26.551Z,100446.03
2022-07-25T14:00:54.299Z,100462.28
2022-07-25T14:03:21.922Z,100461.41
2022-07-25T14:05:49.426Z,100475.03
2022-07-25T14:08:16.550Z,100472.47
2022-07-25T14:10:44.316Z,100468.13
2022-07-25T14:13:13.658Z,100478.66
2022-07-25T14:15:42.954Z,100485.56
2022-07-25T14:18:10.272Z,100493.31
2022-07-25T14:20:38.525Z,100491.38
2022-07-25T14:23:05.770Z,100491.38
2022-07-25T14:25:33.584Z,100502.91
2022-07-25T14:28:01.132Z,100493.66
2022-07-25T14:30:28.413Z,100503.50
2022-07-25T14:32:55.486Z,100501.66
2022-07-25T14:35:22.923Z,100488.31
2022-07-25T14:37:50.271Z,100510.91
2022-07-25T14:40:17.956Z,100520.59
2022-07-25T14:42:45.681Z,100524.09
2022-07-25T14:45:15.505Z,100533.09
2022-07-25T14:47:42.803Z,100535.53
2022-07-25T14:50:10.426Z,100540.84
2022-07-25T14:52:37.906Z,100551.53
2022-07-25T14:55:05.899Z,100555.75
2022-07-25T14:57:33.142Z,100553.19
2022-07-25T15:00:02.334Z,100564.09
2022-07-25T15:02:30.352Z,100569.91
2022-07-25T15:04:57.402Z,100571.47
2022-07-25T15:07:24.949Z,100572.84
2022-07-25T15:11:40.261Z,100587.38
2022-07-25T15:14:07.545Z,100593.84
2022-07-25T15:16:34.967Z,100604.75
2022-07-25T15:19:16.605Z,100604.00
2022-07-25T15:21:45.051Z,100605.94
2022-07-25T15:24:12.298Z,100609.72
2022-07-25T15:26:39.735Z,100601.94
2022-07-25T15:29:08.530Z,100617.50
2022-07-25T15:31:38.729Z,100611.25
2022-07-25T15:34:06.105Z,100618.69
2022-07-25T15:36:33.050Z,100608.97
2022-07-25T15:39:00.158Z,100621.13
2022-07-25T15:41:27.108Z,100621.59
2022-07-25T15:43:54.401Z,100628.13
2022-07-25T15:46:22.013Z,100620.66
2022-07-25T15:48:49.456Z,100645.97
2022-07-25T15:51:17.244Z,100637.22
2022-07-25T15:53:44.968Z,100636.66
2022-07-25T15:56:16.321Z,100634.34
2022-07-25T15:58:44.439Z,100653.84
2022-07-25T16:01:11.708Z,100658.94
2022-07-25T16:03:38.870Z,100663.06
2022-07-25T16:06:06.129Z,100666.22
2022-07-25T16:08:33.118Z,100678.06
2022-07-25T16:11:00.467Z,100677.34
2022-07-25T16:13:27.924Z,100687.06
2022-07-25T16:15:55.068Z,100686.06
2022-07-25T16:18:22.917Z,100692.16
2022-07-25T16:20:50.347Z,100698.34
2022-07-25T16:23:17.425Z,100706.44
2022-07-25T16:25:44.348Z,100705.59
2022-07-25T16:28:11.340Z,100710.84
2022-07-25T16:30:39.378Z,100711.78
2022-07-25T16:33:06.397Z,100725.03
2022-07-25T16:35:33.450Z,100716.75
2022-07-25T16:38:00.830Z,100719.44
2022-07-25T16:40:30.865Z,100723.94
2022-07-25T16:42:59.750Z,100730.22
2022-07-25T16:45:27.575Z,100739.66
2022-07-25T16:47:54.874Z,100750.09
2022-07-25T16:50:21.876Z,100750.09
2022-07-25T16:52:48.812Z,100755.44
2022-07-25T16:55:15.794Z,100760.78
2022-07-25T16:57:42.808Z,100758.25
2022-07-25T17:00:10.289Z,100771.44
2022-07-25T17:02:37.842Z,100781.03
2022-07-25T17:05:05.420Z,100772.94
2022-07-25T17:07:32.879Z,100778.25
2022-07-25T17:09:59.783Z,100783.59
2022-07-25T17:12:26.693Z,100790.75
2022-07-25T17:14:54.187Z,100796.06
2022-07-25T17:17:21.305Z,100799.84
2022-07-25T17:19:48.497Z,100807.09
2022-07-25T17:22:15.512Z,100818.00
2022-07-25T17:24:42.693Z,100811.69
2022-07-25T17:27:10.476Z,100812.66
2022-07-25T17:29:37.908Z,100818.25
2022-07-25T17:32:07.162Z,100827.81
2022-07-25T17:34:34.468Z,100825.66
2022-07-25T17:37:04.628Z,100832.94
2022-07-25T17:39:33.382Z,100838.25
2022-07-25T17:42:00.920Z,100850.00
2022-07-25T17:44:28.088Z,100848.31
2022-07-25T17:46:55.528Z,100846.63
2022-07-25T17:49:23.047Z,100852.69
2022-07-25T17:51:50.595Z,100850.25
2022-07-25T17:54:17.989Z,100849.38
2022-07-25T17:56:45.908Z,100862.63
2022-07-25T17:59:14.078Z,100865.38
2022-07-25T18:01:42.798Z,100882.25
2022-07-25T18:04:11.722Z,100879.13
2022-07-25T18:06:38.988Z,100886.38
2022-07-25T18:09:06.259Z,100881.50
2022-07-25T18:11:33.902Z,100887.06
2022-07-25T18:14:01.013Z,100892.41
2022-07-25T18:16:28.394Z,100895.81
2022-07-25T18:18:55.655Z,100889.75
2022-07-25T18:21:24.131Z,100903.81
2022-07-25T18:23:51.884Z,100905.75
2022-07-25T18:26:19.142Z,100905.75
2022-07-25T18:28:46.533Z,100909.78
2022-07-25T18:31:14.241Z,100912.31
2022-07-25T18:33:41.818Z,100917.44
2022-07-25T18:36:09.282Z,100922.53
2022-07-25T18:38:36.802Z,100922.75
2022-07-25T18:41:28.094Z,100928.09
2022-07-25T18:43:53.014Z,100922.13
2022-07-25T18:46:20.652Z,100933.44
2022-07-25T18:48:48.570Z,100933.19
2022-07-25T18:51:15.792Z,100941.94
2022-07-25T18:53:47.381Z,100953.25
2022-07-25T18:56:20.554Z,100959.22
2022-07-25T18:58:47.978Z,100961.53
2022-07-25T19:01:15.373Z,100973.78
2022-07-25T19:03:42.684Z,100973.78
2022-07-25T19:06:10.030Z,100988.59
2022-07-25T19:08:37.800Z,100988.72
2022-07-25T19:11:06.659Z,100995.66
2022-07-25T19:13:51.644Z,101007.03
2022-07-25T19:16:22.370Z,101000.63
2022-07-25T19:18:51.358Z,101000.75
2022-07-25T19:21:18.797Z,101000.63
2022-07-25T19:23:50.793Z,100992.84
2022-07-25T19:26:20.803Z,101003.66
2022-07-25T19:28:48.553Z,101003.13
2022-07-25T19:31:17.622Z,101019.38
2022-07-25T19:33:46.492Z,101017.91
2022-07-25T19:36:15.559Z,101013.63
2022-07-25T19:38:43.247Z,101025.28
2022-07-25T19:41:10.565Z,101027.94
2022-07-25T19:43:39.665Z,101026.00
2022-07-25T19:46:08.057Z,101042.13
2022-07-25T19:48:35.330Z,101034.44
2022-07-25T19:51:03.312Z,101047.28
2022-07-25T19:53:32.951Z,101050.78
2022-07-25T19:56:02.360Z,101063.63
2022-07-25T19:58:36.672Z,101068.00
2022-07-25T20:01:05.742Z,101073.03
2022-07-25T20:03:32.835Z,101080.25
2022-07-25T20:06:03.389Z,101069.13
2022-07-25T20:08:35.065Z,101078.97
2022-07-25T20:11:04.207Z,101090.38
2022-07-25T20:13:33.632Z,101093.03
2022-07-25T20:16:02.659Z,101102.00
2022-07-25T20:18:32.863Z,101106.38
2022-07-25T20:21:00.344Z,101108.06
2022-07-25T20:23:29.179Z,101104.56
2022-07-25T20:25:56.303Z,101113.41
2022-07-25T20:28:23.369Z,101116.06
2022-07-25T20:30:51.321Z,101116.94
2022-07-25T20:33:19.921Z,101114.25
2022-07-25T20:35:47.897Z,101112.44
2022-07-25T20:38:19.641Z,101109.03
2022-07-25T20:40:49.709Z,101117.78
2022-07-25T20:43:20.018Z,101116.06
2022-07-25T20:45:47.697Z,101119.72
2022-07-25T20:48:15.702Z,101125.06
2022-07-25T20:50:44.381Z,101122.25
2022-07-25T20:53:11.919Z,101133.66
2022-07-25T20:55:40.572Z,101126.75
2022-07-25T20:58:08.252Z,101131.84
2022-07-25T21:00:36.338Z,101132.72
2022-07-25T21:03:03.524Z,101135.72
2022-07-25T21:05:31.055Z,101131.97
2022-07-25T21:08:00.770Z,101136.59
2022-07-25T21:10:28.052Z,101148.94
2022-07-25T21:12:57.322Z,101136.69
2022-07-25T21:15:25.798Z,101150.22
2022-07-25T21:17:53.153Z,101158.13
2022-07-25T21:20:20.677Z,101160.16
2022-07-25T21:22:48.324Z,101158.69
2022-07-25T21:25:17.885Z,101164.22
2022-07-25T21:27:45.655Z,101174.97
2022-07-25T21:30:13.240Z,101174.38
2022-07-25T21:32:41.816Z,101177.03
2022-07-25T21:35:09.412Z,101182.25
2022-07-25T21:37:36.731Z,101186.09
2022-07-25T21:40:05.243Z,101191.53
2022-07-25T21:42:36.077Z,101190.66
2022-07-25T21:45:04.845Z,101196.13
2022-07-25T21:47:34.773Z,101203.38
2022-07-25T21:50:25.027Z,101207.00
2022-07-25T21:52:53.711Z,101208.72
2022-07-25T21:55:22.128Z,101211.59
2022-07-25T21:57:52.055Z,101218.72
2022-07-25T22:00:20.956Z,101221.50
2022-07-25T22:02:48.615Z,101224.25
2022-07-25T22:05:20.668Z,101227.88
2022-07-25T22:07:48.613Z,101233.31
2022-07-25T22:10:18.145Z,101233.31
2022-07-25T22:12:45.923Z,101236.19
2022-07-25T22:15:14.443Z,101227.25
2022-07-25T22:17:48.964Z,101225.53
2022-07-25T22:20:19.122Z,101229.19
2022-07-25T22:22:48.674Z,101238.13
2022-07-25T22:25:16.705Z,101238.31
2022-07-25T22:27:44.770Z,101241.94
2022-07-25T22:30:18.274Z,101247.25
2022-07-25T22:32:53.898Z,101244.72
2022-07-25T22:35:21.302Z,101251.97
2022-07-25T22:37:48.484Z,101256.44
2022-07-25T22:40:15.562Z,101261.03
2022-07-25T22:42:43.029Z,101263.69
2022-07-25T22:45:10.739Z,101270.84
2022-07-25T22:47:38.189Z,101268.25
2022-07-25T22:50:05.863Z,101266.44
2022-07-25T22:52:35.379Z,101274.56
2022-07-25T22:55:02.797Z,101272.84
2022-07-25T22:57:29.750Z,101270.25
2022-07-25T23:00:07.702Z,101269.41
2022-07-25T23:02:34.789Z,101258.84
2022-07-25T23:05:02.102Z,101266.00
2022-07-25T23:07:29.159Z,101269.59
2022-07-25T23:09:56.316Z,101266.19
2022-07-25T23:12:23.385Z,101267.13
2022-07-25T23:14:50.663Z,101269.06
2022-07-25T23:17:17.851Z,101271.84
2022-07-25T23:19:45.634Z,101282.56
2022-07-25T23:22:12.871Z,101285.34
2022-07-25T23:24:39.780Z,101285.34
2022-07-25T23:27:07.336Z,101295.34
2022-07-25T23:29:34.541Z,101302.47
2022-07-25T23:32:01.978Z,101311.34
2022-07-25T23:34:28.980Z,101311.53
2022-07-25T23:36:55.865Z,101309.84
2022-07-25T23:39:22.780Z,101312.50
2022-07-25T23:41:49.735Z,101317.06
2022-07-25T23:44:16.598Z,101310.03
2022-07-25T23:46:44.460Z,101311.94
2022-07-25T23:49:13.357Z,101307.66
2022-07-25T23:51:40.604Z,101313.09
2022-07-25T23:54:07.604Z,101318.53
2022-07-25T23:56:34.488Z,101323.00
2022-07-25T23:59:01.352Z,101323.19
